VTSS/HDY METAR and TAF weather

Enter ICAO airport designator
Station Type Date Time Source
VTSS METAR 2020/06/03 15:00 UTC NOAA

VTSS 031500Z 00000KT 8000 FEW020 BKN100 25/25 Q1011 NOSIG


Station Type Date Time Source
VTSS Decoded METAR 2020/06/03 15:00 UTC NOAA

Hat Yai, Thailand (VTSS) 06-55N 100-26E 35M
Jun 03, 2020 - 11:00 AM EDT / 2020.06.03 1500 UTC
Wind: Calm:0
Visibility: 4 mile(s):0
Sky conditions: mostly cloudy
Temperature: 77 F (25 C)
Dew Point: 77 F (25 C)
Relative Humidity: 100%
Pressure (altimeter): 29.85 in. Hg (1011 hPa)
ob: VTSS 031500Z 00000KT 8000 FEW020 BKN100 25/25 Q1011 NOSIG
cycle: 15

Station Type Date Time Source
VTSS TAF 2020/06/03 12:36 UTC NOAA

TAF VTSS 031100Z 0312/0412 15003KT 9999 SCT020
TEMPO 0312/0315 5000 RA SCT015 BKN100
BECMG 0320/0322 1500 BR SCT005
BECMG 0400/0402 9999 NSW FEW020
TEMPO 0406/0412 VRB10G20KT 5000 TSRA FEW016CB SCT018 BKN100

Example: see airport list